Time;durP1;ratioP1;P1;durP2;ratioP2;P2;SDS_P1;SDS_P2;PMS_P1;PMS_P2;Temp;Humidity;BMP_temperature;BMP_pressure;BME280_temperature;BME280_humidity;BME280_pressure;Samples;Min_cycle;Max_cycle;Signal;HPM_P1;HPM_P2
2021/10/09 00:00:42;;;;;;;17.38;13.30;;;12.50;90.20;;;;;;2099161;28;20040;-90
2021/10/09 00:02:01;;;;;;;16.80;12.55;;;12.50;90.20;;;;;;2087764;28;20041;-90
2021/10/09 00:03:21;;;;;;;18.23;12.88;;;12.50;90.20;;;;;;2100178;28;20044;-90
2021/10/09 00:04:40;;;;;;;18.15;12.32;;;12.50;90.20;;;;;;2104226;28;20056;-90
2021/10/09 00:06:00;;;;;;;16.23;12.32;;;12.50;90.20;;;;;;2098341;28;20037;-90
2021/10/09 00:07:19;;;;;;;16.38;12.57;;;12.50;90.30;;;;;;2106919;28;20056;-89
2021/10/09 00:08:38;;;;;;;18.45;13.48;;;12.50;90.30;;;;;;2082826;28;20069;-90
2021/10/09 00:10:00;;;;;;;17.48;14.05;;;12.50;90.30;;;;;;2075493;28;20049;-90
2021/10/09 00:11:32;;;;;;;21.15;14.30;;;12.50;90.30;;;;;;2100789;28;20083;-90
2021/10/09 00:12:52;;;;;;;18.17;13.52;;;12.50;90.30;;;;;;2105498;28;20036;-90
2021/10/09 00:14:13;;;;;;;17.05;12.77;;;12.40;90.30;;;;;;2077845;28;20033;-90
2021/10/09 00:15:32;;;;;;;17.10;13.02;;;12.40;90.30;;;;;;2097020;28;20036;-90
2021/10/09 00:16:52;;;;;;;19.30;13.65;;;12.40;90.30;;;;;;2078280;28;20045;-90
2021/10/09 00:18:11;;;;;;;16.80;12.90;;;12.40;90.30;;;;;;2098926;28;20482;-89
2021/10/09 00:19:31;;;;;;;17.88;13.80;;;12.40;90.30;;;;;;2077121;28;20045;-90
2021/10/09 00:20:50;;;;;;;19.77;13.85;;;12.40;90.30;;;;;;2096313;28;20040;-90
2021/10/09 00:22:09;;;;;;;19.60;14.02;;;12.40;90.40;;;;;;2095381;28;20049;-90
2021/10/09 00:23:28;;;;;;;19.70;14.05;;;12.40;90.40;;;;;;2098847;28;20048;-90
2021/10/09 00:24:47;;;;;;;18.15;13.70;;;12.40;90.40;;;;;;2109740;28;20036;-90
2021/10/09 00:26:07;;;;;;;17.98;14.05;;;12.40;90.40;;;;;;2115508;28;20067;-90
2021/10/09 00:27:26;;;;;;;17.80;13.55;;;12.40;90.40;;;;;;2116504;28;20386;-90
2021/10/09 00:28:46;;;;;;;18.48;13.88;;;12.40;90.40;;;;;;2098117;28;20041;-90
2021/10/09 00:30:06;;;;;;;20.65;15.00;;;12.40;90.40;;;;;;2086176;28;20068;-89
2021/10/09 00:31:25;;;;;;;20.05;15.40;;;12.40;90.40;;;;;;2105734;28;20039;-90
2021/10/09 00:32:45;;;;;;;18.05;13.73;;;12.40;90.40;;;;;;2113226;28;20028;-89
2021/10/09 00:34:04;;;;;;;18.58;13.65;;;12.30;90.60;;;;;;2108845;28;20031;-89
2021/10/09 00:35:24;;;;;;;17.40;13.32;;;12.40;90.40;;;;;;2114728;28;20043;-90
2021/10/09 00:36:43;;;;;;;18.85;14.23;;;12.30;90.40;;;;;;2105595;28;20062;-90
2021/10/09 00:38:02;;;;;;;20.05;14.32;;;12.30;90.40;;;;;;2085413;28;20045;-90
2021/10/09 00:39:21;;;;;;;16.00;13.05;;;12.30;90.50;;;;;;2087472;28;20041;-90
2021/10/09 00:40:40;;;;;;;16.10;12.38;;;12.30;90.50;;;;;;2090860;28;20505;-90
2021/10/09 00:42:00;;;;;;;17.67;13.65;;;12.30;90.50;;;;;;2103386;28;20028;-90
2021/10/09 00:43:19;;;;;;;16.77;13.23;;;12.30;90.50;;;;;;2111512;28;20040;-90
2021/10/09 00:44:39;;;;;;;17.50;13.15;;;12.30;90.50;;;;;;2109771;28;20036;-90
2021/10/09 00:45:58;;;;;;;20.33;15.25;;;12.30;90.50;;;;;;2098218;28;20041;-90
2021/10/09 00:47:22;;;;;;;20.30;15.07;;;12.30;90.50;;;;;;2094420;28;20177;-90
2021/10/09 00:48:42;;;;;;;18.75;14.48;;;12.30;90.60;;;;;;2102827;28;20036;-90
2021/10/09 00:50:01;;;;;;;17.88;13.77;;;12.30;90.50;;;;;;2091325;28;20033;-90
2021/10/09 00:51:20;;;;;;;19.02;14.52;;;12.30;90.50;;;;;;2099777;28;20036;-90
2021/10/09 00:52:41;;;;;;;21.50;16.52;;;12.20;90.50;;;;;;2094210;28;20044;-90
2021/10/09 00:54:01;;;;;;;;;;;12.20;90.50;;;;;;2107747;28;20047;-90
2021/10/09 00:55:22;;;;;;;18.63;14.20;;;12.20;90.50;;;;;;2110402;28;19912;-90
2021/10/09 00:56:42;;;;;;;18.00;13.73;;;12.20;90.50;;;;;;2114626;28;20039;-89
2021/10/09 00:58:02;;;;;;;18.52;13.98;;;12.20;90.50;;;;;;2105287;28;20460;-90
2021/10/09 00:59:26;;;;;;;17.48;13.68;;;12.20;90.50;;;;;;2094244;28;20032;-89
2021/10/09 01:00:46;;;;;;;18.20;13.95;;;12.20;90.60;;;;;;2108992;28;20063;-90
2021/10/09 01:02:06;;;;;;;20.75;15.15;;;12.20;90.60;;;;;;2114154;28;20514;-90
2021/10/09 01:03:26;;;;;;;19.17;14.13;;;12.20;90.60;;;;;;2114861;28;20051;-90
2021/10/09 01:04:47;;;;;;;19.25;13.98;;;12.20;90.60;;;;;;2105870;28;20044;-89
2021/10/09 01:06:06;;;;;;;18.27;13.85;;;12.10;90.60;;;;;;2111606;28;20073;-90
2021/10/09 01:07:26;;;;;;;19.98;15.20;;;12.10;90.60;;;;;;2106193;28;20039;-90
2021/10/09 01:08:45;;;;;;;21.05;15.50;;;12.10;90.60;;;;;;2096311;28;20045;-89
2021/10/09 01:10:04;;;;;;;19.73;15.13;;;12.10;90.60;;;;;;2111785;28;20048;-90
2021/10/09 01:11:24;;;;;;;22.30;15.77;;;12.10;90.60;;;;;;2115137;28;20043;-90
2021/10/09 01:12:43;;;;;;;21.50;16.50;;;12.10;90.60;;;;;;2114976;28;20509;-90
2021/10/09 01:14:03;;;;;;;20.05;15.32;;;12.10;90.70;;;;;;2116061;28;20028;-90
2021/10/09 01:15:29;;;;;;;18.20;14.45;;;12.10;90.70;;;;;;2110680;28;20044;-89
2021/10/09 01:16:48;;;;;;;20.55;15.50;;;12.10;90.70;;;;;;2114512;28;20032;-90
2021/10/09 01:18:14;;;;;;;17.90;14.60;;;12.10;90.70;;;;;;2106023;28;20052;-90
2021/10/09 01:19:34;;;;;;;20.00;15.43;;;12.10;90.70;;;;;;2104910;28;20048;-90
2021/10/09 01:21:01;;;;;;;20.55;15.20;;;12.10;90.70;;;;;;2103883;28;20426;-90
2021/10/09 01:22:20;;;;;;;20.48;15.23;;;12.00;90.70;;;;;;2104394;28;20433;-89
2021/10/09 01:23:40;;;;;;;21.35;15.55;;;12.00;90.70;;;;;;2104006;28;20047;-90
2021/10/09 01:24:59;;;;;;;19.77;14.75;;;12.00;90.80;;;;;;2108078;28;20115;-90
2021/10/09 01:26:19;;;;;;;21.58;16.30;;;12.00;90.80;;;;;;2107725;28;20063;-90
2021/10/09 01:27:40;;;;;;;23.70;16.75;;;12.00;90.80;;;;;;2098925;28;20434;-90
2021/10/09 01:28:59;;;;;;;23.65;16.60;;;11.90;90.80;;;;;;2105275;28;20036;-90
2021/10/09 01:30:19;;;;;;;21.95;16.30;;;12.00;90.80;;;;;;2106424;28;20052;-89
2021/10/09 01:31:38;;;;;;;21.83;16.25;;;11.90;90.80;;;;;;2092352;28;20037;-91
2021/10/09 01:32:57;;;;;;;20.55;15.88;;;11.90;90.80;;;;;;2100150;28;20066;-91
2021/10/09 01:34:21;;;;;;;18.85;15.65;;;11.90;90.80;;;;;;2107647;28;20116;-90
2021/10/09 01:35:49;;;;;;;20.88;15.98;;;11.90;90.90;;;;;;2099709;28;20119;-90
2021/10/09 01:37:08;;;;;;;22.10;16.00;;;11.90;90.90;;;;;;2086683;28;20040;-89
2021/10/09 01:38:28;;;;;;;24.02;18.17;;;11.90;90.90;;;;;;2092077;28;20040;-90
2021/10/09 01:39:48;;;;;;;;;;;11.90;91.20;;;;;;2104635;28;20040;-89
2021/10/09 01:41:08;;;;;;;22.00;16.70;;;11.80;90.90;;;;;;2107197;28;19904;-90
2021/10/09 01:42:27;;;;;;;20.38;15.35;;;11.80;90.90;;;;;;2106306;28;20036;-90
2021/10/09 01:43:46;;;;;;;21.60;15.77;;;11.80;90.90;;;;;;2099954;28;20045;-89
2021/10/09 01:45:07;;;;;;;20.60;15.68;;;11.80;90.90;;;;;;2105130;28;20057;-90
2021/10/09 01:46:26;;;;;;;22.88;16.75;;;11.80;91.00;;;;;;2107060;28;20040;-90
2021/10/09 01:47:45;;;;;;;20.10;15.77;;;11.80;91.00;;;;;;2098671;28;20045;-89
2021/10/09 01:49:06;;;;;;;20.20;15.68;;;11.80;91.00;;;;;;2072873;28;20034;-90
2021/10/09 01:50:26;;;;;;;23.75;17.33;;;11.80;91.00;;;;;;2084559;28;20033;-90
2021/10/09 01:51:45;;;;;;;21.40;17.05;;;11.70;91.00;;;;;;2087191;28;20064;-90
2021/10/09 01:53:05;;;;;;;22.58;17.25;;;11.70;91.10;;;;;;2083115;28;20116;-90
2021/10/09 01:54:25;;;;;;;23.42;17.52;;;11.70;91.10;;;;;;2084696;28;20033;-89
2021/10/09 01:55:44;;;;;;;20.92;16.40;;;11.70;91.10;;;;;;2079174;28;20037;-89
2021/10/09 01:57:04;;;;;;;21.15;16.02;;;11.70;91.10;;;;;;2085600;28;20033;-89
2021/10/09 01:58:23;;;;;;;21.05;16.50;;;11.70;91.10;;;;;;2074145;28;20050;-90
2021/10/09 01:59:42;;;;;;;25.85;18.33;;;11.70;91.10;;;;;;2094529;28;20047;-90
2021/10/09 02:01:01;;;;;;;26.00;18.98;;;11.70;91.20;;;;;;2101893;28;20040;-90
2021/10/09 02:02:21;;;;;;;23.38;17.35;;;11.60;91.20;;;;;;2106369;28;20036;-89
2021/10/09 02:03:40;;;;;;;22.92;16.85;;;11.60;91.20;;;;;;2106005;28;20478;-89
2021/10/09 02:04:59;;;;;;;23.35;17.52;;;11.60;91.20;;;;;;2082664;28;20478;-89
2021/10/09 02:06:19;;;;;;;22.45;17.40;;;11.60;91.20;;;;;;2093851;28;20040;-90
2021/10/09 02:07:38;;;;;;;21.40;15.98;;;11.60;91.20;;;;;;2105961;28;20040;-90
2021/10/09 02:08:57;;;;;;;20.42;15.55;;;11.60;91.20;;;;;;2099109;28;20040;-90
2021/10/09 02:10:16;;;;;;;22.17;16.45;;;11.60;91.30;;;;;;2099395;28;20044;-90
2021/10/09 02:11:39;;;;;;;22.10;16.05;;;11.50;91.30;;;;;;2099393;28;20083;-90
2021/10/09 02:13:03;;;;;;;23.48;17.42;;;11.50;91.30;;;;;;2082531;28;20045;-90
2021/10/09 02:16:08;;;;;;;20.27;15.80;;;11.50;91.30;;;;;;2089302;28;20120;-90
2021/10/09 02:24:13;;;;;;;22.23;15.82;;;11.40;91.40;;;;;;2114039;28;20052;-90
2021/10/09 02:25:45;;;;;;;20.98;15.85;;;11.40;91.40;;;;;;2107878;28;20044;-89
2021/10/09 02:27:04;;;;;;;24.65;16.90;;;11.40;91.40;;;;;;2098790;28;20040;-89
2021/10/09 02:28:24;;;;;;;25.40;18.05;;;11.40;91.40;;;;;;2096155;28;20075;-90
2021/10/09 02:29:43;;;;;;;22.60;17.30;;;11.30;91.40;;;;;;2109510;28;20062;-89
2021/10/09 02:31:03;;;;;;;25.02;18.08;;;11.30;91.40;;;;;;2113186;28;20049;-90
2021/10/09 02:32:22;;;;;;;24.75;18.20;;;11.30;91.50;;;;;;2111839;28;20043;-89
2021/10/09 02:33:42;;;;;;;23.83;17.73;;;11.30;91.50;;;;;;2112442;28;20031;-90
2021/10/09 02:35:01;;;;;;;21.45;16.83;;;11.30;91.50;;;;;;2107754;28;20412;-90
2021/10/09 02:36:20;;;;;;;22.50;16.42;;;11.30;91.50;;;;;;2098533;28;20586;-90
2021/10/09 02:37:40;;;;;;;22.17;17.02;;;11.30;91.50;;;;;;2096640;28;20048;-90
2021/10/09 02:38:59;;;;;;;21.02;16.65;;;11.20;91.50;;;;;;2094879;28;20070;-90
2021/10/09 02:40:18;;;;;;;21.05;15.98;;;11.20;91.50;;;;;;2095782;28;20037;-89
2021/10/09 02:41:37;;;;;;;21.33;16.15;;;11.20;91.50;;;;;;2097744;28;20040;-90
2021/10/09 02:42:57;;;;;;;20.77;15.80;;;11.20;91.50;;;;;;2089349;28;20502;-90
2021/10/09 02:44:16;;;;;;;23.40;16.48;;;11.20;91.60;;;;;;2097766;28;20121;-89
2021/10/09 02:45:35;;;;;;;23.65;16.30;;;11.20;91.60;;;;;;2092345;28;20510;-90
2021/10/09 02:46:54;;;;;;;22.58;16.67;;;11.20;91.60;;;;;;2103637;28;20033;-90
2021/10/09 02:48:16;;;;;;;23.63;17.27;;;11.20;91.80;;;;;;2087144;28;20044;-90
2021/10/09 02:49:35;;;;;;;22.92;16.70;;;11.20;91.60;;;;;;2098441;28;20036;-90
2021/10/09 02:50:54;;;;;;;20.77;16.15;;;11.20;91.60;;;;;;2088320;28;20066;-90
2021/10/09 02:52:14;;;;;;;23.13;16.65;;;11.20;91.60;;;;;;2091808;28;20488;-90
2021/10/09 02:53:33;;;;;;;21.90;17.45;;;11.20;91.70;;;;;;2095083;28;20056;-90
2021/10/09 02:54:53;;;;;;;21.17;15.85;;;11.10;91.60;;;;;;2104847;28;20040;-90
2021/10/09 02:56:12;;;;;;;21.92;15.82;;;11.10;91.70;;;;;;2118707;28;20493;-90
2021/10/09 02:57:31;;;;;;;19.88;15.00;;;11.10;91.70;;;;;;2124607;28;20027;-90
2021/10/09 02:58:50;;;;;;;23.52;17.08;;;11.10;91.70;;;;;;2123419;28;20020;-89
2021/10/09 03:00:11;;;;;;;24.45;17.38;;;11.10;91.70;;;;;;2123982;28;20036;-89
2021/10/09 03:01:30;;;;;;;20.88;15.32;;;11.10;91.70;;;;;;2118740;28;20039;-89
2021/10/09 03:02:49;;;;;;;22.67;16.83;;;11.10;91.70;;;;;;2116062;28;20035;-90
2021/10/09 03:04:08;;;;;;;20.30;15.40;;;11.10;91.70;;;;;;2107056;28;20227;-90
2021/10/09 03:05:28;;;;;;;19.48;15.07;;;11.00;91.70;;;;;;2111520;28;20047;-90
2021/10/09 03:06:47;;;;;;;20.13;15.02;;;11.10;91.80;;;;;;2106552;28;20032;-90
2021/10/09 03:08:07;;;;;;;18.73;14.13;;;11.00;91.70;;;;;;2094527;28;20072;-90
2021/10/09 03:09:26;;;;;;;19.35;14.15;;;11.00;91.80;;;;;;2107410;28;20082;-90
2021/10/09 03:10:45;;;;;;;17.42;14.00;;;11.00;91.80;;;;;;2100869;28;20048;-90
2021/10/09 03:12:05;;;;;;;20.67;15.40;;;11.00;91.80;;;;;;2106303;28;20047;-89
2021/10/09 03:13:24;;;;;;;18.23;14.35;;;11.00;91.80;;;;;;2100097;28;20044;-90
2021/10/09 03:14:43;;;;;;;19.42;15.02;;;11.00;91.80;;;;;;2110930;28;20032;-89
2021/10/09 03:16:03;;;;;;;19.08;14.75;;;11.00;91.80;;;;;;2114139;28;20544;-90
2021/10/09 03:17:22;;;;;;;19.42;14.25;;;11.00;91.80;;;;;;2114584;28;20032;-88
2021/10/09 03:18:41;;;;;;;19.30;14.43;;;11.00;91.80;;;;;;2102876;28;20047;-89
2021/10/09 03:20:00;;;;;;;19.35;14.68;;;11.00;91.80;;;;;;2094607;28;20457;-90
2021/10/09 03:21:20;;;;;;;20.77;14.32;;;11.00;91.80;;;;;;2095138;28;20049;-90
2021/10/09 03:22:40;;;;;;;19.67;14.82;;;11.00;92.10;;;;;;2106606;28;20040;-89
2021/10/09 03:23:59;;;;;;;20.45;15.55;;;10.90;91.80;;;;;;2110258;28;20051;-90
2021/10/09 03:25:18;;;;;;;20.60;15.13;;;10.90;92.10;;;;;;2104411;28;20040;-90
2021/10/09 03:26:38;;;;;;;18.45;14.55;;;10.90;91.80;;;;;;2105240;28;20044;-90
2021/10/09 03:27:57;;;;;;;19.42;14.90;;;10.90;91.90;;;;;;2097206;28;20048;-90
2021/10/09 03:29:16;;;;;;;18.92;14.10;;;10.90;91.90;;;;;;2104148;28;20036;-90
2021/10/09 03:30:36;;;;;;;17.70;14.27;;;10.90;91.90;;;;;;2105895;28;20043;-90
2021/10/09 03:31:55;;;;;;;20.38;14.50;;;10.90;91.90;;;;;;2103347;28;20032;-90
2021/10/09 03:33:14;;;;;;;19.15;14.05;;;10.90;92.20;;;;;;2107235;28;20036;-90
2021/10/09 03:34:33;;;;;;;18.27;14.20;;;10.80;91.90;;;;;;2103825;28;20043;-90
2021/10/09 03:35:52;;;;;;;19.65;14.32;;;10.90;91.90;;;;;;2104938;28;20032;-89
2021/10/09 03:37:12;;;;;;;17.92;13.45;;;10.90;91.90;;;;;;2106654;28;20044;-90
2021/10/09 03:38:31;;;;;;;19.90;14.65;;;10.80;91.90;;;;;;2107081;28;20486;-90
2021/10/09 03:39:52;;;;;;;18.38;14.27;;;10.80;91.90;;;;;;2106089;28;20043;-90
2021/10/09 03:41:14;;;;;;;19.33;14.82;;;10.80;91.90;;;;;;2112360;28;20018;-85
2021/10/09 03:42:38;;;;;;;18.60;14.35;;;10.80;91.90;;;;;;2108022;28;20033;-89
2021/10/09 03:43:57;;;;;;;18.00;13.90;;;10.80;91.90;;;;;;2102234;28;20040;-90
2021/10/09 03:45:45;;;;;;;20.55;15.20;;;10.80;91.90;;;;;;2106244;28;20490;-90
2021/10/09 03:47:15;;;;;;;19.33;14.00;;;10.80;91.90;;;;;;2106174;28;20064;-89
2021/10/09 03:50:20;;;;;;;20.65;15.15;;;10.80;91.90;;;;;;2106056;28;20040;-90
2021/10/09 03:53:17;;;;;;;20.75;14.70;;;10.70;91.90;;;;;;2102860;28;20039;-90
2021/10/09 03:54:36;;;;;;;19.88;14.95;;;10.70;91.90;;;;;;2104381;28;20032;-90
2021/10/09 03:55:55;;;;;;;20.23;14.68;;;10.70;91.90;;;;;;2098376;28;20048;-89
2021/10/09 03:57:14;;;;;;;21.38;15.35;;;10.60;91.90;;;;;;2083621;28;20045;-90
2021/10/09 03:58:33;;;;;;;21.05;15.07;;;10.70;92.00;;;;;;2096527;28;20421;-90
2021/10/09 03:59:53;;;;;;;22.48;15.77;;;10.60;91.90;;;;;;2110816;28;20093;-90
2021/10/09 04:01:12;;;;;;;21.35;16.13;;;10.60;92.00;;;;;;2100294;28;20040;-89
2021/10/09 04:02:32;;;;;;;20.05;14.82;;;10.60;92.00;;;;;;2091932;28;20044;-90
2021/10/09 04:03:52;;;;;;;21.40;16.50;;;10.60;92.00;;;;;;2081742;28;20033;-89
2021/10/09 04:05:11;;;;;;;22.67;16.02;;;10.60;92.00;;;;;;2096122;28;20036;-89
2021/10/09 04:06:30;;;;;;;19.67;14.50;;;10.60;92.00;;;;;;2094232;28;20546;-89
2021/10/09 04:07:49;;;;;;;21.33;14.88;;;10.60;92.00;;;;;;2107618;28;20047;-90
2021/10/09 04:09:08;;;;;;;20.40;14.32;;;10.60;92.00;;;;;;2111110;28;20560;-90
2021/10/09 04:10:28;;;;;;;19.23;14.65;;;10.60;92.00;;;;;;2107357;28;20465;-89
2021/10/09 04:11:47;;;;;;;19.13;14.60;;;10.60;92.00;;;;;;2101580;28;20041;-90
2021/10/09 04:13:06;;;;;;;20.20;14.95;;;10.50;92.00;;;;;;2100321;28;20040;-90
2021/10/09 04:14:25;;;;;;;20.58;15.45;;;10.60;92.10;;;;;;2106484;28;20478;-89
2021/10/09 04:15:45;;;;;;;21.85;15.25;;;10.50;92.00;;;;;;2094503;28;20060;-90
2021/10/09 04:17:04;;;;;;;21.30;15.30;;;10.50;92.00;;;;;;2087074;28;20045;-90
2021/10/09 04:18:23;;;;;;;22.65;15.45;;;10.50;92.00;;;;;;2097385;28;20126;-89
2021/10/09 04:19:43;;;;;;;21.88;15.63;;;10.50;92.00;;;;;;2102158;28;20040;-89
2021/10/09 04:21:02;;;;;;;21.90;15.98;;;10.50;92.10;;;;;;2105435;28;20040;-90
2021/10/09 04:22:21;;;;;;;22.10;16.13;;;10.50;92.10;;;;;;2106958;28;20036;-89
2021/10/09 04:23:41;;;;;;;20.60;15.60;;;10.50;92.10;;;;;;2104720;28;20040;-90
2021/10/09 04:25:00;;;;;;;20.73;15.40;;;10.50;92.10;;;;;;2090867;28;20036;-90
2021/10/09 04:26:19;;;;;;;21.77;16.50;;;10.40;92.10;;;;;;2106720;28;20043;-90
2021/10/09 04:27:38;;;;;;;20.63;15.77;;;10.40;92.10;;;;;;2105642;28;20048;-90
2021/10/09 04:28:57;;;;;;;20.80;15.57;;;10.40;92.10;;;;;;2106257;28;20072;-88
2021/10/09 04:30:16;;;;;;;20.45;14.77;;;10.50;92.10;;;;;;2103225;28;20028;-90
2021/10/09 04:31:36;;;;;;;20.92;14.80;;;10.40;92.10;;;;;;2095826;28;20469;-90
2021/10/09 04:32:55;;;;;;;22.08;15.05;;;10.40;92.10;;;;;;2099589;28;20039;-90
2021/10/09 04:34:14;;;;;;;22.13;15.70;;;10.40;92.10;;;;;;2096239;28;20398;-89
2021/10/09 04:35:33;;;;;;;21.83;15.82;;;10.40;92.10;;;;;;2104860;28;20048;-90
2021/10/09 04:36:55;;;;;;;22.00;15.45;;;10.40;92.10;;;;;;2109122;28;20040;-89
2021/10/09 04:38:14;;;;;;;19.77;14.98;;;10.40;92.10;;;;;;2109223;28;20087;-90
2021/10/09 04:39:33;;;;;;;19.40;15.15;;;10.40;92.10;;;;;;2105869;28;20036;-89
2021/10/09 04:40:53;;;;;;;20.95;14.93;;;10.40;92.10;;;;;;2094951;28;20041;-89
2021/10/09 04:42:12;;;;;;;20.55;15.52;;;10.30;92.10;;;;;;2105197;28;20040;-90
2021/10/09 04:43:32;;;;;;;21.17;15.15;;;10.40;92.10;;;;;;2105771;28;20036;-89
2021/10/09 04:44:51;;;;;;;21.33;15.60;;;10.30;92.10;;;;;;2111983;28;20031;-90
2021/10/09 04:46:10;;;;;;;22.20;16.65;;;10.30;92.20;;;;;;2116223;28;20901;-89
2021/10/09 04:47:29;;;;;;;21.38;16.23;;;10.30;92.20;;;;;;2104920;28;20040;-90
2021/10/09 04:48:48;;;;;;;21.88;15.27;;;10.30;92.20;;;;;;2088025;28;20123;-90
2021/10/09 04:50:07;;;;;;;21.63;16.50;;;10.30;92.20;;;;;;2106580;28;20409;-90
2021/10/09 04:51:27;;;;;;;22.08;16.13;;;10.30;92.20;;;;;;2113271;28;20051;-90
2021/10/09 04:52:46;;;;;;;21.58;15.50;;;10.20;92.20;;;;;;2113258;28;20048;-89
2021/10/09 04:54:05;;;;;;;20.90;16.02;;;10.30;92.30;;;;;;2107703;28;20529;-90
2021/10/09 04:55:25;;;;;;;20.50;14.95;;;10.30;92.30;;;;;;2104821;28;20048;-90
2021/10/09 04:56:44;;;;;;;21.20;15.18;;;10.30;92.50;;;;;;2105770;28;20044;-90
2021/10/09 04:58:03;;;;;;;21.70;15.65;;;10.30;92.30;;;;;;2103426;28;20044;-90
2021/10/09 04:59:22;;;;;;;21.23;15.80;;;10.30;92.20;;;;;;2101499;28;20079;-89
2021/10/09 05:00:41;;;;;;;21.75;15.80;;;10.30;92.20;;;;;;2104361;28;20040;-90
2021/10/09 05:02:01;;;;;;;21.92;16.17;;;10.20;92.20;;;;;;2112961;28;20099;-90
2021/10/09 05:03:20;;;;;;;22.35;16.17;;;10.20;92.20;;;;;;2095345;28;20499;-90
2021/10/09 05:04:39;;;;;;;20.77;15.50;;;10.20;92.20;;;;;;2109540;28;20043;-89
2021/10/09 05:05:58;;;;;;;22.17;15.93;;;10.20;92.30;;;;;;2116775;28;20115;-90
2021/10/09 05:07:17;;;;;;;23.85;16.35;;;10.20;92.20;;;;;;2107158;28;20040;-90
2021/10/09 05:08:36;;;;;;;23.35;16.35;;;10.20;92.30;;;;;;2102575;28;20126;-90
2021/10/09 05:09:56;;;;;;;21.58;15.65;;;10.10;92.30;;;;;;2113289;28;20040;-90
2021/10/09 05:11:19;;;;;;;22.92;16.90;;;10.20;92.30;;;;;;2098831;28;20102;-88
2021/10/09 05:12:38;;;;;;;22.20;16.50;;;10.10;92.30;;;;;;2102995;28;20115;-89
2021/10/09 05:13:57;;;;;;;21.92;16.63;;;10.10;92.30;;;;;;2112606;28;20071;-90
2021/10/09 05:15:16;;;;;;;23.10;16.77;;;10.10;92.30;;;;;;2114041;28;20040;-90
2021/10/09 05:16:36;;;;;;;24.48;17.65;;;10.10;92.30;;;;;;2116730;28;20036;-89
2021/10/09 05:17:55;;;;;;;24.63;16.98;;;10.10;92.30;;;;;;2107451;28;20040;-89
2021/10/09 05:19:14;;;;;;;22.48;16.08;;;10.10;92.30;;;;;;2112615;28;20031;-90
2021/10/09 05:20:33;;;;;;;22.67;16.52;;;10.10;92.30;;;;;;2092203;28;20096;-89
2021/10/09 05:21:53;;;;;;;22.90;16.15;;;10.10;92.30;;;;;;2095128;28;20466;-89
2021/10/09 05:23:12;;;;;;;22.20;16.35;;;10.10;92.30;;;;;;2096129;28;20056;-89
2021/10/09 05:24:31;;;;;;;23.27;16.70;;;10.10;92.40;;;;;;2100868;28;20474;-90
2021/10/09 05:25:50;;;;;;;22.33;16.15;;;10.10;92.40;;;;;;2102539;28;20029;-89
2021/10/09 05:27:10;;;;;;;24.80;17.88;;;10.10;92.40;;;;;;2113108;28;20044;-89
2021/10/09 05:28:42;;;;;;;22.17;16.55;;;10.10;92.40;;;;;;2111742;28;20044;-90
2021/10/09 05:30:07;;;;;;;21.08;15.50;;;10.00;92.40;;;;;;2100419;28;20487;-89
2021/10/09 05:31:29;;;;;;;20.85;15.18;;;10.00;92.40;;;;;;2113478;28;20057;-90
2021/10/09 05:32:59;;;;;;;22.52;15.57;;;10.00;92.40;;;;;;2108876;28;20107;-88
2021/10/09 05:34:19;;;;;;;20.60;14.73;;;10.00;92.40;;;;;;2108330;28;20048;-90
2021/10/09 05:35:39;;;;;;;20.55;15.05;;;10.00;92.70;;;;;;2120705;28;20036;-89
2021/10/09 05:36:59;;;;;;;23.90;15.98;;;10.00;92.40;;;;;;2117995;28;20035;-90
2021/10/09 05:38:18;;;;;;;22.85;16.42;;;10.00;92.40;;;;;;2116176;28;20051;-89
2021/10/09 05:39:37;;;;;;;22.85;16.08;;;10.00;92.40;;;;;;2116826;28;20044;-89
2021/10/09 05:40:57;;;;;;;22.33;16.08;;;10.00;92.40;;;;;;2107631;28;20028;-90
2021/10/09 05:42:16;;;;;;;20.60;15.80;;;10.00;92.40;;;;;;2112925;28;20040;-88
2021/10/09 05:43:35;;;;;;;21.92;16.08;;;10.00;92.40;;;;;;2114547;28;20043;-90
2021/10/09 05:44:56;;;;;;;23.58;16.02;;;10.00;92.40;;;;;;2103605;28;20155;-89
2021/10/09 05:46:17;;;;;;;22.77;16.08;;;10.00;92.40;;;;;;2105052;28;20521;-90
2021/10/09 05:47:38;;;;;;;23.00;16.83;;;10.00;92.40;;;;;;2108006;28;20036;-89
2021/10/09 05:48:58;;;;;;;22.50;16.42;;;9.90;92.40;;;;;;2105379;28;20036;-88
2021/10/09 05:50:18;;;;;;;22.38;15.65;;;10.00;92.50;;;;;;2104083;28;20040;-89
2021/10/09 05:51:42;;;;;;;;;;;9.90;92.40;;;;;;2104710;28;20040;-89
2021/10/09 05:53:14;;;;;;;22.08;15.55;;;9.90;92.40;;;;;;2115382;28;19911;-89
2021/10/09 05:57:55;;;;;;;25.38;17.08;;;9.90;92.40;;;;;;2099964;28;20048;-88
2021/10/09 06:01:24;;;;;;;23.92;17.05;;;9.90;92.40;;;;;;2109668;28;20056;-89
2021/10/09 06:42:14;;;;;;;21.80;15.55;;;9.90;92.40;;;;;;2106191;28;20048;-90
2021/10/09 07:00:16;;;;;;;25.38;18.10;;;10.00;92.30;;;;;;2105572;28;20052;-88
2021/10/09 07:01:35;;;;;;;22.42;17.05;;;10.00;92.20;;;;;;2103645;28;20036;-88
2021/10/09 07:02:54;;;;;;;22.88;16.48;;;10.00;92.20;;;;;;2101592;28;20040;-87
2021/10/09 07:04:14;;;;;;;25.08;17.55;;;10.00;92.20;;;;;;2106379;28;20040;-88
2021/10/09 07:05:34;;;;;;;23.60;16.88;;;10.10;92.30;;;;;;2105477;28;20466;-88
2021/10/09 07:06:55;;;;;;;24.98;18.27;;;10.10;92.20;;;;;;2111171;28;20044;-88
2021/10/09 07:08:15;;;;;;;23.08;16.45;;;10.10;92.30;;;;;;2109893;28;20048;-88
2021/10/09 07:09:34;;;;;;;25.10;18.15;;;10.10;92.20;;;;;;2107159;28;20028;-88
2021/10/09 07:10:54;;;;;;;25.17;18.38;;;10.10;92.20;;;;;;2107000;28;20036;-88
2021/10/09 07:12:13;;;;;;;25.92;19.48;;;10.20;92.20;;;;;;2098121;28;20036;-87
2021/10/09 07:13:32;;;;;;;24.50;17.95;;;10.20;92.20;;;;;;2098300;28;20436;-88
2021/10/09 07:14:51;;;;;;;25.55;18.35;;;10.20;92.20;;;;;;2100471;28;20417;-88
2021/10/09 07:16:10;;;;;;;26.00;18.77;;;10.20;92.20;;;;;;2111853;28;20044;-88
2021/10/09 07:17:30;;;;;;;25.95;19.35;;;10.20;92.20;;;;;;2111861;28;20044;-88
2021/10/09 07:18:50;;;;;;;26.33;19.48;;;10.20;92.10;;;;;;2106296;28;20048;-88
2021/10/09 07:20:09;;;;;;;24.17;17.80;;;10.20;92.10;;;;;;2109809;28;20497;-89
2021/10/09 07:21:28;;;;;;;24.95;18.10;;;10.20;92.10;;;;;;2102758;28;20448;-89
2021/10/09 07:22:48;;;;;;;24.92;18.00;;;10.30;92.10;;;;;;2102073;28;20040;-84
2021/10/09 07:24:08;;;;;;;26.38;19.05;;;10.30;92.10;;;;;;2107174;28;20044;-90
2021/10/09 07:25:29;;;;;;;25.45;17.77;;;10.30;92.10;;;;;;2105916;28;20040;-87
2021/10/09 07:26:48;;;;;;;27.60;19.35;;;10.30;92.10;;;;;;2092697;28;20048;-88
2021/10/09 07:28:07;;;;;;;25.95;19.10;;;10.30;92.10;;;;;;2100370;28;20509;-88
2021/10/09 07:29:27;;;;;;;26.45;18.67;;;10.30;92.00;;;;;;2103579;28;20453;-87
2021/10/09 07:30:46;;;;;;;25.10;17.85;;;10.30;92.00;;;;;;2106108;28;20067;-88
2021/10/09 07:32:06;;;;;;;23.88;17.90;;;10.40;92.00;;;;;;2102156;28;20047;-87
2021/10/09 07:33:25;;;;;;;24.80;18.42;;;10.40;92.00;;;;;;2103259;28;20115;-88
2021/10/09 07:34:44;;;;;;;25.42;17.67;;;10.40;92.00;;;;;;2098597;28;20037;-88
2021/10/09 07:36:04;;;;;;;23.67;17.95;;;10.40;91.90;;;;;;2099247;28;20074;-87
2021/10/09 07:37:23;;;;;;;23.77;17.07;;;10.40;91.90;;;;;;2101966;28;20040;-87
2021/10/09 07:38:43;;;;;;;24.25;17.42;;;10.50;91.90;;;;;;2093538;28;20378;-87
2021/10/09 07:40:03;;;;;;;22.95;17.52;;;10.40;91.90;;;;;;2102884;28;20047;-87
2021/10/09 07:41:23;;;;;;;23.40;16.77;;;10.50;91.90;;;;;;2103631;28;20024;-87
2021/10/09 07:42:42;;;;;;;23.35;17.10;;;10.50;92.20;;;;;;2102941;28;20119;-87
2021/10/09 07:44:01;;;;;;;24.63;17.20;;;10.50;91.90;;;;;;2102787;28;20418;-86
2021/10/09 07:45:20;;;;;;;22.88;17.15;;;10.50;91.90;;;;;;2104590;28;20039;-87
2021/10/09 07:46:39;;;;;;;21.27;16.00;;;10.50;91.90;;;;;;2098132;28;20052;-89
2021/10/09 07:47:58;;;;;;;21.67;15.98;;;10.50;91.90;;;;;;2094605;28;20032;-89
2021/10/09 07:49:19;;;;;;;21.42;15.95;;;10.60;91.90;;;;;;2095822;28;20044;-88
2021/10/09 07:50:38;;;;;;;21.20;16.30;;;10.60;91.90;;;;;;2098944;28;20040;-87
2021/10/09 07:51:57;;;;;;;22.42;15.88;;;10.60;91.80;;;;;;2102160;28;20107;-87
2021/10/09 07:53:17;;;;;;;20.13;15.30;;;10.60;91.80;;;;;;2102193;28;20470;-89
2021/10/09 07:54:36;;;;;;;21.02;15.45;;;10.70;91.80;;;;;;2109546;28;20036;-88
2021/10/09 07:55:56;;;;;;;24.20;17.73;;;10.70;91.80;;;;;;2109308;28;20028;-88
2021/10/09 07:57:15;;;;;;;25.55;17.88;;;10.80;91.70;;;;;;2098152;28;20037;-88
2021/10/09 07:58:34;;;;;;;23.42;16.35;;;10.80;91.60;;;;;;2099659;28;20465;-88
2021/10/09 07:59:54;;;;;;;23.42;16.35;;;10.80;91.60;;;;;;2098090;28;20037;-88